createdAt,value
2023-04-22T00:00:55.200Z,26.86
2023-04-22T00:01:55.236Z,26.92
2023-04-22T00:02:55.402Z,26.91
2023-04-22T00:03:55.590Z,26.91
2023-04-22T00:04:55.567Z,26.89
2023-04-22T00:05:55.487Z,26.91
2023-04-22T00:06:55.467Z,26.91
2023-04-22T00:07:55.524Z,26.94
2023-04-22T00:08:55.577Z,26.87
2023-04-22T00:09:55.624Z,26.92
2023-04-22T00:10:55.670Z,26.91
2023-04-22T00:11:55.737Z,26.91
2023-04-22T00:12:55.825Z,26.89
2023-04-22T00:13:55.825Z,26.89
2023-04-22T00:14:55.881Z,26.95
2023-04-22T00:15:55.978Z,26.88
2023-04-22T00:16:56.003Z,26.88
2023-04-22T00:17:56.127Z,26.88
2023-04-22T00:18:56.133Z,26.89
2023-04-22T00:19:56.159Z,26.92
2023-04-22T00:20:56.205Z,26.95
2023-04-22T00:21:56.248Z,26.91
2023-04-22T00:22:56.306Z,26.93
2023-04-22T00:23:56.376Z,26.89
2023-04-22T00:24:56.430Z,26.90
2023-04-22T00:25:56.473Z,26.90
2023-04-22T00:26:56.526Z,26.83
2023-04-22T00:27:56.579Z,26.86
2023-04-22T00:28:56.651Z,26.88
2023-04-22T00:29:56.687Z,26.89
2023-04-22T00:30:56.776Z,26.86
2023-04-22T00:31:56.804Z,26.90
2023-04-22T00:32:56.858Z,26.93
2023-04-22T00:33:56.890Z,26.89
2023-04-22T00:34:56.954Z,26.90
2023-04-22T00:35:57.017Z,26.86
2023-04-22T00:36:57.067Z,26.92
2023-04-22T00:37:57.122Z,26.89
2023-04-22T00:38:57.150Z,26.90
2023-04-22T00:39:57.212Z,26.92
2023-04-22T00:40:57.249Z,26.90
2023-04-22T00:41:57.302Z,26.87
2023-04-22T00:42:57.359Z,26.89
2023-04-22T00:43:57.426Z,26.85
2023-04-22T00:44:57.527Z,26.89
2023-04-22T00:45:57.516Z,26.86
2023-04-22T00:46:57.665Z,26.85
2023-04-22T00:47:57.692Z,26.90
2023-04-22T00:48:57.657Z,26.87
2023-04-22T00:49:57.724Z,26.89
2023-04-22T00:50:57.757Z,26.87
2023-04-22T00:51:57.794Z,26.90
2023-04-22T00:52:57.823Z,26.86
2023-04-22T00:53:57.881Z,26.86
2023-04-22T00:54:57.937Z,26.89
2023-04-22T00:55:57.971Z,26.84
2023-04-22T00:56:57.983Z,26.82
2023-04-22T00:57:58.008Z,26.84
2023-04-22T00:58:58.035Z,26.83
2023-04-22T00:59:58.038Z,26.87
2023-04-22T01:00:58.135Z,26.83
2023-04-22T01:01:58.106Z,26.80
2023-04-22T01:02:58.346Z,26.80
2023-04-22T01:03:58.347Z,26.84
2023-04-22T01:04:58.234Z,26.84
2023-04-22T01:05:58.315Z,26.82
2023-04-22T01:06:58.362Z,26.82
2023-04-22T01:07:58.386Z,26.83
2023-04-22T01:08:58.427Z,26.83
2023-04-22T01:09:58.472Z,26.84
2023-04-22T01:10:58.525Z,26.77
2023-04-22T01:11:58.575Z,26.79
2023-04-22T01:12:58.629Z,26.80
2023-04-22T01:13:58.679Z,26.80
2023-04-22T01:14:58.741Z,26.80
2023-04-22T01:15:58.779Z,26.80
2023-04-22T01:16:58.934Z,26.82
2023-04-22T01:17:58.908Z,26.79
2023-04-22T01:18:58.922Z,26.80
2023-04-22T01:19:58.969Z,26.77
2023-04-22T01:20:59.025Z,26.82
2023-04-22T01:21:59.070Z,26.83
2023-04-22T01:22:59.123Z,26.82
2023-04-22T01:23:59.165Z,26.80
2023-04-22T01:24:59.202Z,26.80
2023-04-22T01:25:59.249Z,26.83
2023-04-22T01:26:59.277Z,26.84
2023-04-22T01:27:59.319Z,26.77
2023-04-22T01:28:59.345Z,26.80
2023-04-22T01:29:59.371Z,26.83
2023-04-22T01:30:59.399Z,26.79
2023-04-22T01:31:59.461Z,26.77
2023-04-22T01:32:59.543Z,26.80
2023-04-22T01:33:59.533Z,26.80
2023-04-22T01:34:59.586Z,26.82
2023-04-22T01:35:59.606Z,26.80
2023-04-22T01:36:59.663Z,26.84
2023-04-22T01:37:59.672Z,26.83
2023-04-22T01:38:59.709Z,26.82
2023-04-22T01:39:59.768Z,26.80
2023-04-22T01:40:59.823Z,26.83
2023-04-22T01:41:59.887Z,26.79
2023-04-22T01:42:59.898Z,26.82
2023-04-22T01:43:59.941Z,26.79
2023-04-22T01:45:06.966Z,26.76
2023-04-22T01:46:00.065Z,26.77
2023-04-22T01:46:59.985Z,26.86
2023-04-22T01:48:00.035Z,26.81
2023-04-22T01:48:59.993Z,26.83
2023-04-22T01:49:59.960Z,26.84
2023-04-22T01:50:59.958Z,26.83
2023-04-22T01:51:59.941Z,26.82
2023-04-22T01:52:59.936Z,26.84
2023-04-22T01:53:59.934Z,26.82
2023-04-22T01:54:59.927Z,26.84
2023-04-22T01:55:59.997Z,26.88
2023-04-22T01:57:00.057Z,26.87
2023-04-22T01:58:00.164Z,26.84
2023-04-22T01:59:00.152Z,26.87
2023-04-22T02:00:00.257Z,26.80
2023-04-22T02:01:00.285Z,26.80
2023-04-22T02:02:00.725Z,26.83
2023-04-22T02:03:00.579Z,26.80
2023-04-22T02:04:00.434Z,26.83
2023-04-22T02:05:00.512Z,26.81
2023-04-22T02:06:00.490Z,26.81
2023-04-22T02:07:00.489Z,26.80
2023-04-22T02:08:00.497Z,26.81
2023-04-22T02:09:00.499Z,26.78
2023-04-22T02:10:00.507Z,26.74
2023-04-22T02:11:00.515Z,26.80
2023-04-22T02:12:00.519Z,26.79
2023-04-22T02:13:00.520Z,26.77
2023-04-22T02:14:00.528Z,26.81
2023-04-22T02:15:00.564Z,26.77
2023-04-22T02:16:00.644Z,26.76
2023-04-22T02:17:00.558Z,26.76
2023-04-22T02:18:00.566Z,26.80
2023-04-22T02:19:00.592Z,26.76
2023-04-22T02:20:00.686Z,26.77
2023-04-22T02:21:00.650Z,26.76
2023-04-22T02:22:00.671Z,26.73
2023-04-22T02:23:00.732Z,26.83
2023-04-22T02:24:00.759Z,26.77
2023-04-22T02:25:00.798Z,26.74
2023-04-22T02:26:00.805Z,26.79
2023-04-22T02:27:00.803Z,26.74
2023-04-22T02:28:00.833Z,26.80
2023-04-22T02:29:00.849Z,26.76
2023-04-22T02:30:00.882Z,26.79
2023-04-22T02:31:00.949Z,26.76
2023-04-22T02:32:00.925Z,26.77
2023-04-22T02:33:01.016Z,26.77
2023-04-22T02:34:00.986Z,26.80
2023-04-22T02:35:01.013Z,26.81
2023-04-22T02:36:01.036Z,26.80
2023-04-22T02:37:01.110Z,26.73
2023-04-22T02:38:01.145Z,26.77
2023-04-22T02:39:01.157Z,26.74
2023-04-22T02:40:01.180Z,26.77
2023-04-22T02:41:01.204Z,26.76
2023-04-22T02:42:01.225Z,26.76
2023-04-22T02:43:01.281Z,26.80
2023-04-22T02:44:01.331Z,26.70
2023-04-22T02:45:01.350Z,26.70
2023-04-22T02:46:01.408Z,26.74
2023-04-22T02:47:01.623Z,26.74
2023-04-22T02:48:01.591Z,26.74
2023-04-22T02:49:01.558Z,26.77
2023-04-22T02:50:01.603Z,26.78
2023-04-22T02:51:01.626Z,26.77
2023-04-22T02:52:01.630Z,26.71
2023-04-22T02:53:01.670Z,26.80
2023-04-22T02:54:01.683Z,26.72
2023-04-22T02:55:01.690Z,26.76
2023-04-22T02:56:01.695Z,26.71
2023-04-22T02:57:01.707Z,26.77
2023-04-22T02:58:01.706Z,26.74
2023-04-22T02:59:01.717Z,26.73
2023-04-22T03:00:01.742Z,26.76
2023-04-22T03:01:01.777Z,26.71
2023-04-22T03:02:02.683Z,26.77
2023-04-22T03:03:02.219Z,26.74
2023-04-22T03:04:01.983Z,26.76
2023-04-22T03:05:01.771Z,26.70
2023-04-22T03:06:01.765Z,26.77
2023-04-22T03:07:01.750Z,26.73
2023-04-22T03:08:01.747Z,26.70
2023-04-22T03:09:01.768Z,26.70
2023-04-22T03:10:01.728Z,26.71
2023-04-22T03:11:01.728Z,26.74
2023-04-22T03:12:01.712Z,26.68
2023-04-22T03:13:01.721Z,26.68
2023-04-22T03:14:01.697Z,26.71
2023-04-22T03:15:01.690Z,26.68
2023-04-22T03:16:01.698Z,26.68
2023-04-22T03:17:01.750Z,26.65
2023-04-22T03:18:01.690Z,26.71
2023-04-22T03:19:01.660Z,26.68
2023-04-22T03:20:01.681Z,26.64
2023-04-22T03:21:01.649Z,26.73
2023-04-22T03:22:01.641Z,26.73
2023-04-22T03:23:01.646Z,26.71
2023-04-22T03:24:01.636Z,26.70
2023-04-22T03:25:01.649Z,26.70
2023-04-22T03:26:01.618Z,26.76
2023-04-22T03:27:01.603Z,26.71
2023-04-22T03:28:01.665Z,26.72
2023-04-22T03:29:01.719Z,26.72
2023-04-22T03:30:01.732Z,26.71
2023-04-22T03:31:02.617Z,26.76
2023-04-22T03:32:01.795Z,26.72
2023-04-22T03:33:01.842Z,26.71
2023-04-22T03:34:01.774Z,26.70
2023-04-22T03:35:01.789Z,26.74
2023-04-22T03:36:01.810Z,26.70
2023-04-22T03:37:01.831Z,26.69
2023-04-22T03:38:01.870Z,26.71
2023-04-22T03:39:01.918Z,26.70
2023-04-22T03:40:01.916Z,26.67
2023-04-22T03:41:01.961Z,26.68
2023-04-22T03:42:01.943Z,26.68
2023-04-22T03:43:01.982Z,26.65
2023-04-22T03:44:02.173Z,26.65
2023-04-22T03:45:02.053Z,26.67
2023-04-22T03:46:02.116Z,26.72
2023-04-22T03:47:02.170Z,26.63
2023-04-22T03:48:02.237Z,26.64
2023-04-22T03:49:02.205Z,26.65
2023-04-22T03:50:02.242Z,26.63
2023-04-22T03:51:02.181Z,26.67
2023-04-22T03:52:02.183Z,26.67
2023-04-22T03:53:02.193Z,26.64
2023-04-22T03:54:02.223Z,26.70
2023-04-22T03:55:02.281Z,26.60
2023-04-22T03:56:02.291Z,26.64
2023-04-22T03:57:03.149Z,26.68
2023-04-22T03:58:02.422Z,26.65
2023-04-22T03:59:02.446Z,26.68
2023-04-22T04:00:02.464Z,26.67
2023-04-22T04:01:02.478Z,26.60
2023-04-22T04:02:02.618Z,26.64
2023-04-22T04:03:02.684Z,26.64
2023-04-22T04:04:02.694Z,26.64
2023-04-22T04:05:02.806Z,26.65
2023-04-22T04:06:02.593Z,26.65
2023-04-22T04:07:02.559Z,26.67
2023-04-22T04:08:02.570Z,26.65
2023-04-22T04:09:02.580Z,26.64
2023-04-22T04:10:02.599Z,26.61
2023-04-22T04:11:02.617Z,26.64
2023-04-22T04:12:02.636Z,26.67
2023-04-22T04:13:02.704Z,26.61
2023-04-22T04:14:02.732Z,26.60
2023-04-22T04:15:02.753Z,26.61
2023-04-22T04:16:02.757Z,26.60
2023-04-22T04:17:02.745Z,26.63
2023-04-22T04:18:02.828Z,26.64
2023-04-22T04:19:02.760Z,26.66
2023-04-22T04:20:02.760Z,26.61
2023-04-22T04:21:02.768Z,26.62
2023-04-22T04:22:02.781Z,26.61
2023-04-22T04:23:02.786Z,26.64
2023-04-22T04:24:02.765Z,26.60
2023-04-22T04:25:02.780Z,26.65
2023-04-22T04:26:02.803Z,26.60
2023-04-22T04:27:02.782Z,26.55
2023-04-22T04:28:02.783Z,26.51
2023-04-22T04:29:02.830Z,26.57
2023-04-22T04:30:02.834Z,26.58
2023-04-22T04:31:02.900Z,26.55
2023-04-22T04:32:02.855Z,26.55
2023-04-22T04:33:02.932Z,26.55
2023-04-22T04:34:02.863Z,26.53
2023-04-22T04:35:02.835Z,26.54
2023-04-22T04:36:02.834Z,26.48
2023-04-22T04:37:02.848Z,26.53
2023-04-22T04:38:02.916Z,26.50
2023-04-22T04:39:02.869Z,26.54
2023-04-22T04:40:02.875Z,26.54
2023-04-22T04:41:02.865Z,26.53
2023-04-22T04:42:02.872Z,26.51
2023-04-22T04:43:02.872Z,26.51
2023-04-22T04:44:02.886Z,26.51
2023-04-22T04:45:02.899Z,26.50
2023-04-22T04:46:02.875Z,26.50
2023-04-22T04:47:02.962Z,26.50
2023-04-22T04:48:02.947Z,26.50
2023-04-22T04:49:02.890Z,26.48
2023-04-22T04:50:02.881Z,26.51
2023-04-22T04:51:02.884Z,26.47
2023-04-22T04:52:02.907Z,26.50
2023-04-22T04:53:02.966Z,26.47
2023-04-22T04:54:02.955Z,26.47
2023-04-22T04:55:03.023Z,26.43
2023-04-22T04:56:03.067Z,26.47
2023-04-22T04:57:03.122Z,26.50
2023-04-22T04:58:03.100Z,26.51
2023-04-22T04:59:03.151Z,26.47
2023-04-22T05:00:03.211Z,26.50
2023-04-22T05:01:03.355Z,26.47
2023-04-22T05:02:03.300Z,26.47
2023-04-22T05:03:03.407Z,26.47
2023-04-22T05:04:03.628Z,26.54
2023-04-22T05:05:03.455Z,26.51
2023-04-22T05:06:03.410Z,26.47
2023-04-22T05:07:03.420Z,26.51
2023-04-22T05:08:03.461Z,26.50
2023-04-22T05:09:03.522Z,26.51
2023-04-22T05:10:03.581Z,26.47
2023-04-22T05:11:03.651Z,26.55
2023-04-22T05:12:03.648Z,26.54
2023-04-22T05:13:04.447Z,26.50
2023-04-22T05:14:03.735Z,26.49
2023-04-22T05:15:03.775Z,26.50
2023-04-22T05:16:03.858Z,26.50
2023-04-22T05:17:03.916Z,26.47
2023-04-22T05:18:03.992Z,26.51
2023-04-22T05:19:03.992Z,26.54
2023-04-22T05:20:04.011Z,26.51
2023-04-22T05:21:04.013Z,26.48
2023-04-22T05:22:04.021Z,26.58
2023-04-22T05:23:04.033Z,26.54
2023-04-22T05:24:04.059Z,26.52
2023-04-22T05:25:04.068Z,26.54
2023-04-22T05:26:04.075Z,26.56
2023-04-22T05:27:04.109Z,26.50
2023-04-22T05:28:04.208Z,26.58
2023-04-22T05:29:04.233Z,26.56
2023-04-22T05:30:04.252Z,26.58
2023-04-22T05:31:04.270Z,26.57
2023-04-22T05:32:04.385Z,26.56
2023-04-22T05:33:04.440Z,26.56
2023-04-22T05:34:04.412Z,26.58
2023-04-22T05:35:05.183Z,26.54
2023-04-22T05:36:04.413Z,26.55
2023-04-22T05:37:04.445Z,26.53
2023-04-22T05:38:04.476Z,26.54
2023-04-22T05:39:04.487Z,26.61
2023-04-22T05:40:04.544Z,26.58
2023-04-22T05:41:04.539Z,26.53
2023-04-22T05:42:04.552Z,26.55
2023-04-22T05:43:04.582Z,26.59
2023-04-22T05:44:04.608Z,26.58
2023-04-22T05:45:04.638Z,26.54
2023-04-22T05:46:04.713Z,26.47
2023-04-22T05:47:04.678Z,26.54
2023-04-22T05:48:04.720Z,26.56
2023-04-22T05:49:04.736Z,26.56
2023-04-22T05:50:04.759Z,26.54
2023-04-22T05:51:04.813Z,26.51
2023-04-22T05:52:04.909Z,26.63
2023-04-22T05:53:04.973Z,26.58
2023-04-22T05:54:04.957Z,26.56
2023-04-22T05:55:05.014Z,26.44
2023-04-22T05:56:04.951Z,26.44
2023-04-22T05:57:05.008Z,25.87
2023-04-22T05:58:04.984Z,25.82
2023-04-22T05:59:05.001Z,25.76
2023-04-22T06:00:05.000Z,25.94
2023-04-22T06:01:05.001Z,25.94
2023-04-22T06:02:05.073Z,25.78
2023-04-22T06:03:05.246Z,25.96
2023-04-22T06:04:05.156Z,26.05
2023-04-22T06:05:05.448Z,26.04
2023-04-22T06:06:05.269Z,25.98
2023-04-22T06:07:05.079Z,25.85
2023-04-22T06:08:05.098Z,25.94
2023-04-22T06:09:05.118Z,25.97
2023-04-22T06:10:05.691Z,26.04
2023-04-22T06:11:05.189Z,26.06
2023-04-22T06:12:05.220Z,26.00
2023-04-22T06:13:05.231Z,26.02
2023-04-22T06:14:05.246Z,25.94
2023-04-22T06:15:05.282Z,25.89
2023-04-22T06:16:05.529Z,25.85
2023-04-22T06:17:05.298Z,25.91
2023-04-22T06:18:05.347Z,26.14
2023-04-22T06:19:05.395Z,26.02
2023-04-22T06:20:05.453Z,26.07
2023-04-22T06:21:05.505Z,26.09
2023-04-22T06:22:05.487Z,26.21
2023-04-22T06:23:05.544Z,26.25
2023-04-22T06:24:05.553Z,26.34
2023-04-22T06:25:05.587Z,26.24
2023-04-22T06:26:05.624Z,26.17
2023-04-22T06:27:05.646Z,26.21
2023-04-22T06:28:05.671Z,26.10
2023-04-22T06:29:05.688Z,26.06
2023-04-22T06:30:05.706Z,26.03
2023-04-22T06:31:05.756Z,26.03
2023-04-22T06:32:05.749Z,26.01
2023-04-22T06:33:05.768Z,26.05
2023-04-22T06:34:05.777Z,26.12
2023-04-22T06:35:05.784Z,26.09
2023-04-22T06:36:05.801Z,26.12
2023-04-22T06:37:05.885Z,26.17
2023-04-22T06:38:05.819Z,26.20
2023-04-22T06:39:05.825Z,26.23
2023-04-22T06:40:05.894Z,26.18
2023-04-22T06:41:05.841Z,26.25
2023-04-22T06:42:05.854Z,26.23
2023-04-22T06:43:05.843Z,26.18
2023-04-22T06:44:05.846Z,26.14
2023-04-22T06:45:05.849Z,26.20
2023-04-22T06:46:05.886Z,26.26
2023-04-22T06:47:05.947Z,26.24
2023-04-22T06:48:05.880Z,26.20
2023-04-22T06:49:05.876Z,26.21
2023-04-22T06:50:05.881Z,26.27
2023-04-22T06:51:05.879Z,26.29
2023-04-22T06:52:05.872Z,26.30
2023-04-22T06:53:05.906Z,26.27
2023-04-22T06:54:05.882Z,26.26
2023-04-22T06:55:05.904Z,26.27
2023-04-22T06:56:05.905Z,26.30
2023-04-22T06:57:05.893Z,26.33
2023-04-22T06:58:05.901Z,26.38
2023-04-22T06:59:05.891Z,26.36
2023-04-22T07:00:05.911Z,26.36
2023-04-22T07:01:05.909Z,26.37
2023-04-22T07:02:06.088Z,26.40
2023-04-22T07:03:05.951Z,26.42
2023-04-22T07:04:05.940Z,26.43
2023-04-22T07:05:05.919Z,26.47
2023-04-22T07:06:05.917Z,26.48
2023-04-22T07:07:05.954Z,26.42
2023-04-22T07:08:05.910Z,26.49
2023-04-22T07:09:05.945Z,26.51
2023-04-22T07:10:05.931Z,26.61
2023-04-22T07:11:05.919Z,26.54
2023-04-22T07:12:05.903Z,26.58
2023-04-22T07:13:05.906Z,26.59
2023-04-22T07:14:05.916Z,26.59
2023-04-22T07:15:05.910Z,26.59
2023-04-22T07:16:05.942Z,26.58
2023-04-22T07:17:05.911Z,26.19
2023-04-22T07:18:05.935Z,26.25
2023-04-22T07:19:05.973Z,26.35
2023-04-22T07:20:06.011Z,26.50
2023-04-22T07:21:06.064Z,26.48
2023-04-22T07:22:06.087Z,26.61
2023-04-22T07:23:06.113Z,26.86
2023-04-22T07:24:06.097Z,27.07
2023-04-22T07:25:06.179Z,27.12
2023-04-22T07:26:06.182Z,27.05
2023-04-22T07:27:06.216Z,27.15
2023-04-22T07:28:06.277Z,27.33
2023-04-22T07:29:06.325Z,27.42
2023-04-22T07:30:06.387Z,27.59
2023-04-22T07:31:06.427Z,27.68
2023-04-22T07:32:06.571Z,27.78
2023-04-22T07:33:06.572Z,27.75
2023-04-22T07:34:06.495Z,27.76
2023-04-22T07:35:06.497Z,27.76
2023-04-22T07:36:06.540Z,27.75
2023-04-22T07:37:06.546Z,27.72
2023-04-22T07:38:07.317Z,27.67
2023-04-22T07:39:06.728Z,27.66
2023-04-22T07:40:06.722Z,27.57
2023-04-22T07:41:06.790Z,27.51
2023-04-22T07:42:06.776Z,27.46
2023-04-22T07:43:06.790Z,27.44
2023-04-22T07:44:06.833Z,27.40
2023-04-22T07:45:06.859Z,27.38
2023-04-22T07:46:06.936Z,27.38
2023-04-22T07:47:06.922Z,27.32
2023-04-22T07:48:06.997Z,27.39
2023-04-22T07:49:06.924Z,27.24
2023-04-22T07:50:06.960Z,27.21
2023-04-22T07:51:06.967Z,27.27
2023-04-22T07:52:06.983Z,27.27
2023-04-22T07:53:06.983Z,27.25
2023-04-22T07:54:06.989Z,27.25
2023-04-22T07:55:07.004Z,27.31
2023-04-22T07:56:07.019Z,27.22
2023-04-22T07:57:07.049Z,27.24
2023-04-22T07:58:07.088Z,27.21
2023-04-22T07:59:07.058Z,27.21
2023-04-22T08:00:07.094Z,27.21
2023-04-22T08:01:07.113Z,27.13
2023-04-22T08:02:07.146Z,27.18
2023-04-22T08:03:07.307Z,27.14
2023-04-22T08:04:07.258Z,27.23
2023-04-22T08:05:07.182Z,27.17
2023-04-22T08:06:07.111Z,27.14
2023-04-22T08:07:29.805Z,27.11
2023-04-22T08:08:07.096Z,27.09
2023-04-22T08:09:07.087Z,27.09
2023-04-22T08:10:07.072Z,27.18
2023-04-22T08:11:07.078Z,27.08
2023-04-22T08:12:07.062Z,27.11
2023-04-22T08:13:07.079Z,27.10
2023-04-22T08:14:07.051Z,27.04
2023-04-22T08:15:07.038Z,27.11
2023-04-22T08:16:07.073Z,27.08
2023-04-22T08:17:07.022Z,27.12
2023-04-22T08:18:07.041Z,27.08
2023-04-22T08:19:07.013Z,27.04
2023-04-22T08:20:08.060Z,27.15
2023-04-22T08:21:07.002Z,27.07
2023-04-22T08:22:06.990Z,27.20
2023-04-22T08:23:07.004Z,27.13
2023-04-22T08:24:07.004Z,27.13
2023-04-22T08:25:06.972Z,27.11
2023-04-22T08:26:06.962Z,26.77
2023-04-22T08:27:06.953Z,26.68
2023-04-22T08:28:06.949Z,26.60
2023-04-22T08:29:06.968Z,26.61
2023-04-22T08:30:06.969Z,26.71
2023-04-22T08:31:07.036Z,26.91
2023-04-22T08:32:07.032Z,26.91
2023-04-22T08:33:07.055Z,26.94
2023-04-22T08:34:07.070Z,27.05
2023-04-22T08:35:07.086Z,26.99
2023-04-22T08:36:07.096Z,27.06
2023-04-22T08:37:07.116Z,27.11
2023-04-22T08:38:07.160Z,27.24
2023-04-22T08:39:07.152Z,27.36
2023-04-22T08:40:07.153Z,27.31
2023-04-22T08:41:07.179Z,27.32
2023-04-22T08:42:07.168Z,27.41
2023-04-22T08:43:07.189Z,27.44
2023-04-22T08:44:07.175Z,27.47
2023-04-22T08:45:07.194Z,27.61
2023-04-22T08:46:07.208Z,27.66
2023-04-22T08:47:07.239Z,27.77
2023-04-22T08:48:07.172Z,27.81
2023-04-22T08:49:07.204Z,27.91
2023-04-22T08:50:07.252Z,28.01
2023-04-22T08:51:07.309Z,28.09
2023-04-22T08:52:07.356Z,28.17
2023-04-22T08:53:07.428Z,28.23
2023-04-22T08:54:07.533Z,28.29
2023-04-22T08:55:08.248Z,28.41
2023-04-22T08:56:07.579Z,28.51
2023-04-22T08:57:07.598Z,28.60
2023-04-22T08:58:07.652Z,28.60
2023-04-22T08:59:07.669Z,28.61
2023-04-22T09:00:07.707Z,28.71
2023-04-22T09:01:07.785Z,28.71
2023-04-22T09:02:08.007Z,28.84
2023-04-22T09:03:07.993Z,28.86
2023-04-22T09:04:07.983Z,28.97
2023-04-22T09:05:07.968Z,28.90
2023-04-22T09:06:08.045Z,28.95
2023-04-22T09:07:08.096Z,29.02
2023-04-22T09:08:08.172Z,29.00
2023-04-22T09:09:08.211Z,29.05
2023-04-22T09:10:08.259Z,29.22
2023-04-22T09:11:08.337Z,29.23
2023-04-22T09:12:08.353Z,29.25
2023-04-22T09:13:08.407Z,29.33
2023-04-22T09:14:08.458Z,29.40
2023-04-22T09:15:08.506Z,29.47
2023-04-22T09:16:08.570Z,29.43
2023-04-22T09:17:08.641Z,29.51
2023-04-22T09:18:08.663Z,29.51
2023-04-22T09:19:08.713Z,29.52
2023-04-22T09:20:08.822Z,29.73
2023-04-22T09:21:08.822Z,29.75
2023-04-22T09:22:08.861Z,29.79
2023-04-22T09:23:08.908Z,29.87
2023-04-22T09:24:08.968Z,29.98
2023-04-22T09:25:09.011Z,30.00
2023-04-22T09:26:09.056Z,29.98
2023-04-22T09:27:09.101Z,30.02
2023-04-22T09:28:09.137Z,30.09
2023-04-22T09:29:09.152Z,30.20
2023-04-22T09:30:09.171Z,30.21
2023-04-22T09:31:09.211Z,30.34
2023-04-22T09:32:09.426Z,30.42
2023-04-22T09:33:09.378Z,30.33
2023-04-22T09:34:09.358Z,30.51
2023-04-22T09:35:10.277Z,30.57
2023-04-22T09:36:09.490Z,30.61
2023-04-22T09:37:09.476Z,30.56
2023-04-22T09:38:09.515Z,30.76
2023-04-22T09:39:09.498Z,30.83
2023-04-22T09:40:09.565Z,30.87
2023-04-22T09:41:09.579Z,30.87
2023-04-22T09:42:09.620Z,30.94
2023-04-22T09:43:09.665Z,31.00
2023-04-22T09:44:09.694Z,31.06
2023-04-22T09:45:09.730Z,31.07
2023-04-22T09:46:09.783Z,31.15
2023-04-22T09:47:09.801Z,31.06
2023-04-22T09:48:09.881Z,31.09
2023-04-22T09:49:09.893Z,30.89
2023-04-22T09:50:09.917Z,30.03
2023-04-22T09:51:09.956Z,29.69
2023-04-22T09:52:10.011Z,29.16
2023-04-22T09:53:10.054Z,29.39
2023-04-22T09:54:10.149Z,28.93
2023-04-22T09:55:10.157Z,28.79
2023-04-22T09:56:10.226Z,28.72
2023-04-22T09:57:10.284Z,28.61
2023-04-22T09:58:10.334Z,28.50
2023-04-22T09:59:10.376Z,28.39
2023-04-22T10:00:10.422Z,28.33
2023-04-22T10:01:10.520Z,28.21
2023-04-22T10:02:10.517Z,27.93
2023-04-22T10:03:11.223Z,27.11
2023-04-22T10:04:10.563Z,27.38
2023-04-22T10:05:10.544Z,27.40
2023-04-22T10:06:10.524Z,27.20
2023-04-22T10:07:10.521Z,27.52
2023-04-22T10:08:10.692Z,27.42
2023-04-22T10:09:10.566Z,27.39
2023-04-22T10:10:10.564Z,27.47
2023-04-22T10:11:10.562Z,27.60
2023-04-22T10:12:10.575Z,27.62
2023-04-22T10:13:10.650Z,27.70
2023-04-22T10:14:10.598Z,27.79
2023-04-22T10:15:10.607Z,27.82
2023-04-22T10:16:10.633Z,27.74
2023-04-22T10:17:10.706Z,27.75
2023-04-22T10:18:10.723Z,27.75
2023-04-22T10:19:10.759Z,27.72
2023-04-22T10:20:10.798Z,27.61
2023-04-22T10:21:10.875Z,27.58
2023-04-22T10:22:10.899Z,27.57
2023-04-22T10:23:11.007Z,27.57
2023-04-22T10:24:11.066Z,27.53
2023-04-22T10:25:11.077Z,27.48
2023-04-22T10:26:11.146Z,27.43
2023-04-22T10:27:11.214Z,27.44
2023-04-22T10:28:11.264Z,27.40
2023-04-22T10:29:11.335Z,27.36
2023-04-22T10:30:11.409Z,27.26
2023-04-22T10:31:11.493Z,27.37
2023-04-22T10:32:11.535Z,27.36
2023-04-22T10:33:11.596Z,27.28
2023-04-22T10:34:11.644Z,27.33
2023-04-22T10:35:11.721Z,27.22
2023-04-22T10:36:11.779Z,27.23
2023-04-22T10:37:11.865Z,27.24
2023-04-22T10:38:11.848Z,27.21
2023-04-22T10:39:11.920Z,27.19
2023-04-22T10:40:11.986Z,27.21
2023-04-22T10:41:12.037Z,27.18
2023-04-22T10:42:12.106Z,27.18
2023-04-22T10:43:12.157Z,27.14
2023-04-22T10:44:12.205Z,27.08
2023-04-22T10:45:12.269Z,27.05
2023-04-22T10:46:12.390Z,27.06
2023-04-22T10:47:12.371Z,26.99
2023-04-22T10:48:12.418Z,26.93
2023-04-22T10:49:12.452Z,26.89
2023-04-22T10:50:12.550Z,26.87
2023-04-22T10:51:12.570Z,26.87
2023-04-22T10:52:12.628Z,25.59
2023-04-22T10:53:12.688Z,25.77
2023-04-22T10:54:12.711Z,25.61
2023-04-22T10:55:12.759Z,25.04
2023-04-22T10:56:12.777Z,24.11
2023-04-22T10:57:12.836Z,23.60
2023-04-22T10:58:12.898Z,23.99
2023-04-22T10:59:12.956Z,24.08
2023-04-22T11:00:13.010Z,24.10
2023-04-22T11:01:13.086Z,23.54
2023-04-22T11:02:13.135Z,23.36
2023-04-22T11:03:13.145Z,23.76
2023-04-22T11:04:13.211Z,23.01
2023-04-22T11:05:13.103Z,23.10
2023-04-22T11:06:13.118Z,23.40
2023-04-22T11:07:13.155Z,23.40
2023-04-22T11:08:13.179Z,23.42
2023-04-22T11:09:13.205Z,23.36
2023-04-22T11:10:13.189Z,23.37
2023-04-22T11:11:13.185Z,23.37
2023-04-22T11:12:13.176Z,23.41
2023-04-22T11:13:13.172Z,23.44
2023-04-22T11:14:13.184Z,23.43
2023-04-22T11:15:13.203Z,23.44
2023-04-22T11:16:13.249Z,23.43
2023-04-22T11:17:13.237Z,23.43
2023-04-22T11:18:13.241Z,23.53
2023-04-22T11:19:13.239Z,23.47
2023-04-22T11:20:13.244Z,23.59
2023-04-22T11:21:13.240Z,23.56
2023-04-22T11:22:12.231Z,23.54
2023-04-22T11:23:13.248Z,23.62
2023-04-22T11:24:13.230Z,23.69
2023-04-22T11:25:13.244Z,23.81
2023-04-22T11:26:13.305Z,23.76
2023-04-22T11:27:13.301Z,23.79
2023-04-22T11:28:13.304Z,23.93
2023-04-22T11:29:13.323Z,24.16
2023-04-22T11:30:13.318Z,24.06
2023-04-22T11:31:13.328Z,24.09
2023-04-22T11:32:13.385Z,24.17
2023-04-22T11:33:13.353Z,24.19
2023-04-22T11:34:13.361Z,24.02
2023-04-22T11:35:13.392Z,24.05
2023-04-22T11:36:13.406Z,24.19
2023-04-22T11:37:13.424Z,24.29
2023-04-22T11:38:13.464Z,24.20
2023-04-22T11:39:13.511Z,24.29
2023-04-22T11:40:27.846Z,24.23
2023-04-22T11:41:13.590Z,24.15
2023-04-22T11:42:13.560Z,24.20
2023-04-22T11:43:13.586Z,24.09
2023-04-22T11:44:13.546Z,24.17
2023-04-22T11:45:13.539Z,24.19
2023-04-22T11:46:13.562Z,24.19
2023-04-22T11:47:13.527Z,24.32
2023-04-22T11:48:13.517Z,24.35
2023-04-22T11:49:13.525Z,24.33
2023-04-22T11:50:13.595Z,24.30
2023-04-22T11:51:13.503Z,24.39
2023-04-22T11:52:13.486Z,24.46
2023-04-22T11:53:13.481Z,24.43
2023-04-22T11:54:13.474Z,24.44
2023-04-22T11:55:13.486Z,24.45
2023-04-22T11:56:13.457Z,24.46
2023-04-22T11:57:13.490Z,24.46
2023-04-22T11:58:13.455Z,24.55
2023-04-22T11:59:13.449Z,24.51
2023-04-22T12:00:13.492Z,24.50
2023-04-22T12:01:13.421Z,24.55
2023-04-22T12:02:13.475Z,24.53
2023-04-22T12:03:15.118Z,24.52
2023-04-22T12:04:13.461Z,24.53
2023-04-22T12:05:13.416Z,24.59
2023-04-22T12:06:13.392Z,24.67
2023-04-22T12:07:13.401Z,24.62
2023-04-22T12:08:13.383Z,24.55
2023-04-22T12:09:13.990Z,24.59
2023-04-22T12:10:13.359Z,24.60
2023-04-22T12:11:13.402Z,24.62
2023-04-22T12:12:13.343Z,24.63
2023-04-22T12:13:13.367Z,24.58
2023-04-22T12:14:13.332Z,24.58
2023-04-22T12:15:13.958Z,24.58
2023-04-22T12:16:13.407Z,24.62
2023-04-22T12:17:13.413Z,24.62
2023-04-22T12:18:13.328Z,24.60
2023-04-22T12:19:13.297Z,24.61
2023-04-22T12:20:13.332Z,24.58
2023-04-22T12:21:13.290Z,24.56
2023-04-22T12:22:13.283Z,24.58
2023-04-22T12:23:13.273Z,24.56
2023-04-22T12:24:13.297Z,24.57
2023-04-22T12:25:13.354Z,24.56
2023-04-22T12:26:13.390Z,24.56
2023-04-22T12:27:13.449Z,24.61
2023-04-22T12:28:13.497Z,24.54
2023-04-22T12:29:13.579Z,24.60
2023-04-22T12:30:13.607Z,24.54
2023-04-22T12:31:13.687Z,24.60
2023-04-22T12:32:13.702Z,24.60
2023-04-22T12:33:13.751Z,24.65
2023-04-22T12:34:13.809Z,24.57
2023-04-22T12:35:13.860Z,24.58
2023-04-22T12:36:13.917Z,24.62
2023-04-22T12:37:13.967Z,24.58
2023-04-22T12:38:14.010Z,24.60
2023-04-22T12:39:14.871Z,24.64
2023-04-22T12:40:14.074Z,24.65
2023-04-22T12:41:14.138Z,24.73
2023-04-22T12:42:14.203Z,24.68
2023-04-22T12:43:14.264Z,24.71
2023-04-22T12:44:14.299Z,24.71
2023-04-22T12:45:14.357Z,24.71
2023-04-22T12:46:14.416Z,24.77
2023-04-22T12:47:14.451Z,24.83
2023-04-22T12:48:14.544Z,24.78
2023-04-22T12:49:14.547Z,24.82
2023-04-22T12:50:14.608Z,24.84
2023-04-22T12:51:14.646Z,24.82
2023-04-22T12:52:14.688Z,24.78
2023-04-22T12:53:14.723Z,24.75